createdAt,value
2023-03-29T00:02:31.136Z,7.40
2023-03-29T00:05:02.024Z,7.40
2023-03-29T00:07:33.392Z,7.30
2023-03-29T00:10:01.492Z,7.30
2023-03-29T00:12:28.919Z,7.30
2023-03-29T00:14:55.931Z,7.20
2023-03-29T00:17:23.225Z,7.30
2023-03-29T00:19:50.452Z,7.10
2023-03-29T00:22:17.420Z,7.10
2023-03-29T00:24:47.724Z,7.20
2023-03-29T00:27:15.738Z,7.30
2023-03-29T00:29:42.574Z,7.40
2023-03-29T00:32:09.534Z,7.10
2023-03-29T00:34:36.368Z,7.00
2023-03-29T00:37:04.184Z,7.00
2023-03-29T00:39:31.300Z,7.00
2023-03-29T00:41:58.242Z,6.90
2023-03-29T00:44:56.412Z,6.90
2023-03-29T00:47:29.196Z,6.70
2023-03-29T00:50:01.644Z,6.80
2023-03-29T00:52:32.177Z,6.90
2023-03-29T00:55:04.400Z,6.80
2023-03-29T00:57:33.242Z,7.30
2023-03-29T01:00:04.961Z,6.80
2023-03-29T01:02:34.711Z,6.80
2023-03-29T01:05:10.492Z,6.80
2023-03-29T01:07:41.789Z,6.80
2023-03-29T01:10:14.482Z,6.80
2023-03-29T01:12:47.331Z,6.80
2023-03-29T01:15:26.563Z,6.80
2023-03-29T01:17:57.887Z,7.20
2023-03-29T01:20:45.018Z,6.80
2023-03-29T01:23:41.085Z,6.70
2023-03-29T01:26:27.190Z,6.70
2023-03-29T01:29:07.665Z,6.70
2023-03-29T01:31:39.246Z,6.60
2023-03-29T01:34:18.684Z,6.60
2023-03-29T01:37:28.526Z,6.60
2023-03-29T01:39:55.469Z,6.50
2023-03-29T01:42:40.932Z,6.50
2023-03-29T01:45:15.406Z,6.50
2023-03-29T01:48:11.694Z,6.50
2023-03-29T01:50:50.414Z,6.50
2023-03-29T01:53:38.052Z,6.40
2023-03-29T01:56:13.160Z,6.40
2023-03-29T01:58:44.778Z,6.40
2023-03-29T02:01:17.732Z,6.40
2023-03-29T02:03:49.851Z,6.40
2023-03-29T02:06:21.280Z,6.50
2023-03-29T02:08:48.675Z,6.10
2023-03-29T02:11:15.834Z,6.50
2023-03-29T02:13:42.806Z,6.60
2023-03-29T02:16:14.945Z,6.60
2023-03-29T02:21:38.758Z,6.60
2023-03-29T02:24:09.085Z,6.60
2023-03-29T02:26:37.318Z,6.60
2023-03-29T02:29:04.854Z,6.60
2023-03-29T02:31:50.055Z,6.60
2023-03-29T02:34:26.724Z,6.60
2023-03-29T02:36:58.765Z,6.40
2023-03-29T02:39:29.007Z,6.50
2023-03-29T02:41:57.041Z,6.70
2023-03-29T02:44:28.151Z,6.60
2023-03-29T02:46:58.875Z,6.70
2023-03-29T02:49:26.130Z,7.10
2023-03-29T02:51:56.765Z,6.60
2023-03-29T02:54:31.605Z,6.90
2023-03-29T02:57:01.714Z,7.00
2023-03-29T02:59:33.462Z,7.00
2023-03-29T03:02:01.085Z,6.50
2023-03-29T03:04:29.518Z,6.50
2023-03-29T03:06:56.498Z,6.60
2023-03-29T03:09:24.066Z,6.70
2023-03-29T03:11:52.607Z,6.50
2023-03-29T03:14:22.833Z,6.50
2023-03-29T03:16:50.629Z,6.50
2023-03-29T03:19:17.743Z,6.50
2023-03-29T03:21:45.545Z,6.50
2023-03-29T03:24:12.582Z,6.80
2023-03-29T03:26:39.665Z,6.60
2023-03-29T03:29:09.931Z,6.50
2023-03-29T03:31:57.029Z,6.50
2023-03-29T03:34:42.485Z,6.70
2023-03-29T03:37:12.018Z,6.50
2023-03-29T03:39:39.498Z,6.60
2023-03-29T03:42:08.820Z,6.60
2023-03-29T03:44:41.389Z,6.60
2023-03-29T03:47:26.992Z,6.60
2023-03-29T03:49:57.388Z,7.00
2023-03-29T03:52:26.383Z,6.60
2023-03-29T03:54:53.432Z,6.80
2023-03-29T03:57:49.561Z,6.60
2023-03-29T04:00:21.286Z,6.50
2023-03-29T04:03:08.822Z,6.60
2023-03-29T04:05:44.725Z,6.60
2023-03-29T04:08:13.202Z,6.50
2023-03-29T04:11:10.453Z,6.90
2023-03-29T04:13:40.785Z,6.60
2023-03-29T04:16:27.552Z,6.70
2023-03-29T04:18:57.300Z,6.60
2023-03-29T04:21:24.645Z,6.90
2023-03-29T04:23:52.559Z,6.70
2023-03-29T04:26:19.929Z,6.70
2023-03-29T04:28:56.179Z,6.60
2023-03-29T04:31:42.013Z,6.70
2023-03-29T04:34:35.601Z,6.70
2023-03-29T04:37:10.952Z,6.70
2023-03-29T04:39:39.302Z,6.60
2023-03-29T04:42:07.495Z,6.50
2023-03-29T04:44:35.413Z,6.60
2023-03-29T04:47:05.468Z,6.50
2023-03-29T04:49:56.480Z,6.60
2023-03-29T04:52:35.586Z,6.60
2023-03-29T04:55:05.173Z,6.60
2023-03-29T04:57:46.983Z,6.60
2023-03-29T05:00:35.047Z,6.50
2023-03-29T05:03:04.976Z,6.50
2023-03-29T05:05:37.600Z,6.40
2023-03-29T05:08:07.605Z,6.40
2023-03-29T05:10:44.778Z,6.40
2023-03-29T05:13:13.377Z,6.50
2023-03-29T05:15:42.160Z,6.70
2023-03-29T05:18:10.589Z,6.90
2023-03-29T05:20:38.476Z,6.60
2023-03-29T05:23:05.622Z,6.60
2023-03-29T05:25:55.270Z,6.50
2023-03-29T05:28:22.438Z,6.60
2023-03-29T05:31:01.222Z,6.50
2023-03-29T05:33:28.814Z,6.70
2023-03-29T05:36:04.344Z,6.60
2023-03-29T05:38:34.831Z,6.60
2023-03-29T05:41:03.477Z,6.70
2023-03-29T05:43:49.080Z,6.70
2023-03-29T05:46:16.468Z,6.60
2023-03-29T05:48:49.121Z,6.70
2023-03-29T05:51:18.946Z,6.70
2023-03-29T05:53:46.176Z,6.70
2023-03-29T05:56:16.059Z,6.80
2023-03-29T05:58:43.782Z,6.80
2023-03-29T06:01:14.803Z,6.80
2023-03-29T06:03:56.439Z,6.80
2023-03-29T06:06:28.830Z,6.80
2023-03-29T06:08:55.974Z,6.80
2023-03-29T06:11:46.598Z,6.80
2023-03-29T06:14:28.946Z,6.90
2023-03-29T06:17:07.232Z,6.90
2023-03-29T06:19:34.418Z,7.00
2023-03-29T06:22:01.399Z,7.00
2023-03-29T06:24:32.364Z,7.00
2023-03-29T06:27:05.397Z,7.10
2023-03-29T06:29:32.647Z,7.10
2023-03-29T06:32:00.234Z,7.50
2023-03-29T06:34:45.394Z,7.20
2023-03-29T06:37:32.984Z,7.30
2023-03-29T06:40:10.484Z,7.50
2023-03-29T06:42:45.984Z,7.30
2023-03-29T06:45:33.589Z,7.50
2023-03-29T06:48:04.629Z,7.50
2023-03-29T06:50:32.389Z,7.50
2023-03-29T06:53:08.066Z,7.60
2023-03-29T06:55:36.265Z,7.70
2023-03-29T06:58:23.650Z,7.70
2023-03-29T07:00:51.718Z,7.70
2023-03-29T07:03:26.914Z,7.70
2023-03-29T07:06:03.509Z,7.70
2023-03-29T07:08:32.701Z,7.80
2023-03-29T07:11:03.592Z,7.80
2023-03-29T07:13:33.798Z,7.70
2023-03-29T07:16:04.152Z,7.80
2023-03-29T07:18:51.404Z,7.80
2023-03-29T07:21:44.302Z,8.20
2023-03-29T07:24:11.418Z,8.30
2023-03-29T07:26:40.471Z,7.90
2023-03-29T07:29:11.781Z,8.00
2023-03-29T07:31:40.920Z,8.00
2023-03-29T07:34:36.973Z,8.10
2023-03-29T07:37:07.109Z,8.00
2023-03-29T07:39:34.127Z,8.50
2023-03-29T07:42:21.185Z,8.20
2023-03-29T07:44:48.610Z,8.10
2023-03-29T07:47:16.640Z,8.30
2023-03-29T07:49:44.659Z,8.40
2023-03-29T07:52:12.065Z,8.40
2023-03-29T07:54:38.983Z,8.50
2023-03-29T07:57:19.646Z,8.60
2023-03-29T07:59:54.006Z,8.80
2023-03-29T08:02:27.345Z,8.70
2023-03-29T08:04:57.581Z,8.90
2023-03-29T08:07:44.613Z,8.80
2023-03-29T08:10:30.336Z,8.90
2023-03-29T08:13:08.456Z,9.00
2023-03-29T08:15:55.615Z,9.10
2023-03-29T08:18:33.426Z,9.20
2023-03-29T08:21:02.608Z,9.30
2023-03-29T08:23:29.627Z,9.30
2023-03-29T08:26:19.609Z,9.30
2023-03-29T08:28:47.632Z,9.40
2023-03-29T08:31:16.628Z,9.50
2023-03-29T08:33:45.011Z,9.50
2023-03-29T08:36:27.657Z,9.60
2023-03-29T08:38:57.597Z,9.70
2023-03-29T08:41:34.232Z,9.90
2023-03-29T08:44:20.571Z,10.00
2023-03-29T08:46:58.959Z,10.10
2023-03-29T08:49:31.839Z,10.20
2023-03-29T08:52:06.367Z,10.30
2023-03-29T08:54:47.474Z,10.40
2023-03-29T08:57:43.380Z,10.20
2023-03-29T09:00:23.634Z,10.60
2023-03-29T09:02:53.945Z,10.70
2023-03-29T09:05:30.080Z,10.80
2023-03-29T09:08:12.223Z,10.90
2023-03-29T09:10:54.074Z,11.00
2023-03-29T09:13:54.131Z,11.10
2023-03-29T09:16:38.177Z,11.10
2023-03-29T09:19:47.449Z,11.20
2023-03-29T09:22:31.387Z,11.20
2023-03-29T09:25:21.745Z,11.30
2023-03-29T09:28:05.090Z,11.40
2023-03-29T09:31:03.973Z,11.50
2023-03-29T09:33:50.502Z,11.70
2023-03-29T09:36:33.137Z,11.70
2023-03-29T09:39:00.806Z,11.80
2023-03-29T09:41:54.713Z,11.90
2023-03-29T09:44:54.356Z,12.00
2023-03-29T09:47:32.805Z,12.00
2023-03-29T09:50:23.109Z,12.10
2023-03-29T09:52:57.260Z,12.10
2023-03-29T09:55:29.447Z,12.00
2023-03-29T09:58:16.158Z,12.30
2023-03-29T10:00:48.521Z,12.40
2023-03-29T10:03:27.452Z,12.50
2023-03-29T10:06:16.238Z,12.60
2023-03-29T10:08:58.935Z,12.70
2023-03-29T10:11:38.438Z,12.70
2023-03-29T10:14:13.474Z,12.90
2023-03-29T10:16:45.100Z,12.90
2023-03-29T10:19:22.626Z,13.10
2023-03-29T10:21:51.579Z,13.20
2023-03-29T10:24:23.358Z,13.30
2023-03-29T10:27:02.610Z,13.40
2023-03-29T10:29:38.574Z,13.50
2023-03-29T10:32:27.737Z,13.60
2023-03-29T10:34:56.003Z,13.70
2023-03-29T10:37:24.023Z,13.80
2023-03-29T10:39:52.036Z,13.90
2023-03-29T10:42:24.775Z,14.10
2023-03-29T10:45:00.757Z,14.40
2023-03-29T10:47:36.930Z,14.50
2023-03-29T10:50:11.924Z,14.50
2023-03-29T10:52:40.337Z,14.60
2023-03-29T10:55:13.172Z,14.80
2023-03-29T10:57:45.696Z,14.80
2023-03-29T11:00:23.452Z,14.90
2023-03-29T11:03:05.094Z,14.90
2023-03-29T11:05:44.457Z,15.10
2023-03-29T11:08:30.418Z,15.20
2023-03-29T11:11:07.780Z,15.30
2023-03-29T11:14:08.682Z,15.40
2023-03-29T11:17:09.250Z,15.50
2023-03-29T11:20:05.821Z,15.70
2023-03-29T11:22:38.821Z,15.70
2023-03-29T11:25:37.257Z,15.90
2023-03-29T11:28:20.697Z,16.00
2023-03-29T11:30:50.484Z,16.00
2023-03-29T11:33:17.372Z,16.00
2023-03-29T11:36:12.547Z,15.80
2023-03-29T11:38:45.184Z,16.10
2023-03-29T11:41:20.656Z,16.20
2023-03-29T11:44:04.687Z,16.30
2023-03-29T11:46:40.231Z,16.40
2023-03-29T11:49:21.436Z,16.40
2023-03-29T11:51:59.652Z,16.40
2023-03-29T11:54:41.825Z,16.50
2023-03-29T11:57:20.589Z,16.60
2023-03-29T12:00:05.340Z,16.70
2023-03-29T12:02:50.968Z,16.90
2023-03-29T12:05:39.736Z,17.00
2023-03-29T12:08:31.225Z,17.10
2023-03-29T12:11:12.472Z,17.00
2023-03-29T12:13:45.805Z,17.10
2023-03-29T12:16:26.579Z,17.10
2023-03-29T12:18:56.864Z,17.20
2023-03-29T12:21:26.471Z,17.30
2023-03-29T12:23:54.867Z,17.30
2023-03-29T12:26:46.310Z,17.40
2023-03-29T12:29:37.756Z,17.60
2023-03-29T12:32:36.586Z,17.70
2023-03-29T12:35:58.993Z,17.80
2023-03-29T12:38:45.529Z,18.00
2023-03-29T12:41:37.324Z,17.90
2023-03-29T12:44:24.020Z,18.00
2023-03-29T12:46:59.974Z,18.10
2023-03-29T12:49:29.249Z,18.30
2023-03-29T12:51:59.656Z,18.40
2023-03-29T12:54:30.782Z,18.50
2023-03-29T12:57:01.733Z,18.50
2023-03-29T12:59:38.997Z,18.40
2023-03-29T13:02:14.917Z,18.30
2023-03-29T13:04:53.018Z,18.40
2023-03-29T13:07:23.085Z,18.50
2023-03-29T13:09:58.791Z,18.60
2023-03-29T13:12:39.525Z,18.80
2023-03-29T13:15:23.063Z,19.00
2023-03-29T13:18:15.006Z,19.20
2023-03-29T13:20:55.766Z,19.30
2023-03-29T13:23:33.298Z,19.50
2023-03-29T13:26:29.017Z,19.60
2023-03-29T13:29:22.768Z,19.70
2023-03-29T13:32:30.881Z,19.80
2023-03-29T13:35:16.068Z,20.00
2023-03-29T13:38:10.458Z,20.00
2023-03-29T13:40:40.369Z,20.00
2023-03-29T13:43:19.575Z,20.10
2023-03-29T13:45:57.910Z,20.10
2023-03-29T13:48:33.609Z,20.00
2023-03-29T13:51:21.730Z,20.00
2023-03-29T13:53:57.146Z,20.10
2023-03-29T13:56:40.245Z,20.10
2023-03-29T13:59:15.607Z,20.20
2023-03-29T14:01:50.832Z,20.30
2023-03-29T14:04:25.025Z,20.30
2023-03-29T14:06:55.417Z,20.30
2023-03-29T14:09:36.121Z,20.40
2023-03-29T14:12:03.518Z,20.60
2023-03-29T14:14:32.151Z,20.70
2023-03-29T14:17:02.138Z,20.90
2023-03-29T14:19:38.290Z,21.00
2023-03-29T14:22:20.156Z,21.20
2023-03-29T14:24:53.066Z,21.30
2023-03-29T14:27:21.595Z,21.40
2023-03-29T14:29:51.256Z,21.50
2023-03-29T14:32:27.153Z,21.50
2023-03-29T14:34:54.237Z,21.70
2023-03-29T14:37:25.377Z,21.70
2023-03-29T14:39:54.925Z,21.90
2023-03-29T14:42:24.945Z,21.90
2023-03-29T14:44:56.769Z,21.80
2023-03-29T14:47:28.562Z,22.00
2023-03-29T14:50:00.639Z,21.90
2023-03-29T14:52:32.160Z,21.90
2023-03-29T14:55:02.048Z,21.90
2023-03-29T14:57:35.610Z,21.70
2023-03-29T15:00:16.811Z,21.70
2023-03-29T15:03:01.377Z,21.60
2023-03-29T15:05:37.948Z,21.60
2023-03-29T15:08:12.155Z,21.50
2023-03-29T15:10:43.009Z,21.50
2023-03-29T15:13:24.415Z,21.50
2023-03-29T15:15:56.387Z,21.50
2023-03-29T15:18:41.836Z,21.40
2023-03-29T15:21:12.804Z,21.30
2023-03-29T15:23:52.654Z,21.30
2023-03-29T15:26:34.731Z,21.30
2023-03-29T15:29:17.057Z,21.30
2023-03-29T15:31:56.163Z,21.40
2023-03-29T15:34:28.248Z,21.40
2023-03-29T15:36:57.423Z,21.40
2023-03-29T15:39:25.395Z,21.40
2023-03-29T15:41:53.644Z,21.30
2023-03-29T15:47:24.047Z,21.00
2023-03-29T15:49:52.252Z,20.90
2023-03-29T15:52:22.341Z,20.90
2023-03-29T15:54:49.543Z,20.80
2023-03-29T15:57:18.052Z,20.70
2023-03-29T15:59:45.450Z,20.70
2023-03-29T16:02:15.890Z,20.70
2023-03-29T16:04:43.601Z,20.70
2023-03-29T16:07:15.160Z,20.90
2023-03-29T16:09:42.692Z,20.90
2023-03-29T16:12:10.415Z,21.00
2023-03-29T16:14:37.771Z,20.90
2023-03-29T16:17:06.279Z,20.80
2023-03-29T16:19:34.046Z,20.80
2023-03-29T16:22:04.990Z,20.70
2023-03-29T16:24:33.230Z,20.50
2023-03-29T16:27:01.462Z,20.50
2023-03-29T16:29:28.525Z,20.40
2023-03-29T16:31:55.548Z,20.40
2023-03-29T16:34:23.340Z,20.50
2023-03-29T16:36:50.648Z,20.50
2023-03-29T16:39:18.446Z,20.40
2023-03-29T16:41:48.444Z,20.20
2023-03-29T16:44:23.869Z,20.10
2023-03-29T16:46:54.331Z,20.10
2023-03-29T16:49:21.665Z,20.00
2023-03-29T16:51:48.756Z,19.90
2023-03-29T16:54:17.300Z,19.70
2023-03-29T16:56:44.642Z,19.60
2023-03-29T16:59:12.247Z,19.50
2023-03-29T17:01:40.724Z,19.30
2023-03-29T17:04:08.256Z,18.90
2023-03-29T17:06:35.991Z,18.60
2023-03-29T17:09:04.952Z,18.20
2023-03-29T17:11:32.001Z,18.00
2023-03-29T17:13:59.022Z,17.70
2023-03-29T17:16:28.819Z,17.50
2023-03-29T17:19:00.196Z,17.30
2023-03-29T17:21:28.960Z,17.10
2023-03-29T17:23:56.456Z,16.90
2023-03-29T17:26:23.737Z,16.80
2023-03-29T17:28:50.690Z,16.20
2023-03-29T17:31:19.416Z,16.50
2023-03-29T17:33:47.689Z,16.40
2023-03-29T17:36:15.012Z,16.30
2023-03-29T17:38:51.566Z,16.20
2023-03-29T17:41:19.415Z,16.10
2023-03-29T17:43:50.976Z,16.00
2023-03-29T17:46:23.639Z,16.00
2023-03-29T17:48:54.843Z,15.90
2023-03-29T17:51:23.709Z,15.70
2023-03-29T17:53:52.444Z,15.80
2023-03-29T17:56:20.311Z,15.70
2023-03-29T17:58:49.181Z,15.70
2023-03-29T18:01:19.598Z,15.70
2023-03-29T18:03:47.769Z,15.60
2023-03-29T18:06:18.270Z,15.60
2023-03-29T18:08:45.359Z,15.60
2023-03-29T18:11:16.146Z,15.60
2023-03-29T18:13:44.530Z,15.50
2023-03-29T18:16:33.617Z,15.40
2023-03-29T18:19:01.242Z,15.40
2023-03-29T18:21:31.673Z,15.30
2023-03-29T18:23:58.682Z,15.20
2023-03-29T18:26:25.939Z,15.10
2023-03-29T18:28:53.434Z,15.20
2023-03-29T18:31:21.211Z,15.10
2023-03-29T18:33:48.408Z,15.10
2023-03-29T18:36:16.184Z,15.00
2023-03-29T18:38:43.812Z,15.00
2023-03-29T18:41:13.213Z,15.00
2023-03-29T18:43:41.267Z,14.90
2023-03-29T18:46:08.582Z,14.80
2023-03-29T18:48:39.214Z,14.80
2023-03-29T18:51:10.958Z,14.70
2023-03-29T18:53:39.909Z,14.70
2023-03-29T18:56:08.018Z,14.70
2023-03-29T18:58:35.287Z,14.70
2023-03-29T19:01:04.474Z,14.70
2023-03-29T19:03:33.386Z,14.70
2023-03-29T19:06:01.967Z,14.60
2023-03-29T19:08:31.520Z,14.70
2023-03-29T19:11:04.376Z,14.70
2023-03-29T19:13:31.855Z,14.70
2023-03-29T19:15:58.907Z,14.60
2023-03-29T19:18:28.242Z,14.60
2023-03-29T19:20:55.635Z,14.50
2023-03-29T19:23:26.025Z,14.40
2023-03-29T19:25:55.226Z,14.30
2023-03-29T19:28:23.011Z,14.30
2023-03-29T19:30:49.937Z,14.20
2023-03-29T19:33:17.928Z,14.20
2023-03-29T19:35:45.219Z,14.10
2023-03-29T19:38:12.770Z,14.10
2023-03-29T19:40:49.808Z,14.10
2023-03-29T19:43:18.071Z,14.00
2023-03-29T19:45:46.083Z,14.00
2023-03-29T19:48:21.986Z,13.90
2023-03-29T19:50:50.417Z,13.90
2023-03-29T19:53:17.367Z,13.80
2023-03-29T19:55:49.459Z,13.80
2023-03-29T19:58:16.402Z,13.70
2023-03-29T20:00:43.391Z,13.70
2023-03-29T20:03:10.584Z,13.80
2023-03-29T20:05:39.217Z,13.70
2023-03-29T20:08:07.262Z,13.70
2023-03-29T20:10:35.584Z,13.70
2023-03-29T20:13:03.215Z,13.70
2023-03-29T20:15:30.142Z,13.70
2023-03-29T20:17:59.357Z,13.70
2023-03-29T20:20:27.586Z,13.80
2023-03-29T20:22:58.394Z,13.80
2023-03-29T20:25:26.170Z,13.70
2023-03-29T20:27:53.452Z,13.80
2023-03-29T20:30:20.636Z,13.80
2023-03-29T20:32:47.601Z,13.80
2023-03-29T20:35:14.725Z,13.80
2023-03-29T20:37:41.606Z,13.70
2023-03-29T20:40:09.325Z,13.70
2023-03-29T20:42:36.783Z,13.70
2023-03-29T20:45:04.531Z,13.70
2023-03-29T20:47:31.790Z,13.70
2023-03-29T20:49:58.783Z,13.70
2023-03-29T20:52:25.751Z,13.70
2023-03-29T20:54:52.566Z,13.60
2023-03-29T20:57:20.984Z,13.50
2023-03-29T20:59:49.296Z,13.50
2023-03-29T21:02:21.817Z,13.60
2023-03-29T21:04:51.758Z,13.60
2023-03-29T21:07:19.844Z,13.60
2023-03-29T21:09:48.345Z,13.70
2023-03-29T21:12:15.218Z,13.60
2023-03-29T21:14:42.012Z,13.70
2023-03-29T21:17:09.474Z,13.70
2023-03-29T21:19:39.123Z,13.80
2023-03-29T21:22:06.183Z,13.80
2023-03-29T21:24:41.895Z,13.70
2023-03-29T21:27:09.112Z,13.80
2023-03-29T21:29:36.077Z,13.80
2023-03-29T21:32:03.035Z,13.80
2023-03-29T21:34:30.383Z,13.80
2023-03-29T21:36:57.190Z,13.80
2023-03-29T21:39:26.764Z,13.70
2023-03-29T21:41:54.365Z,13.70
2023-03-29T21:44:21.302Z,13.70
2023-03-29T21:46:48.250Z,13.70
2023-03-29T21:49:15.209Z,13.70
2023-03-29T21:51:42.090Z,13.80
2023-03-29T21:54:10.594Z,13.80
2023-03-29T21:56:37.476Z,13.80
2023-03-29T21:59:05.066Z,13.90
2023-03-29T22:01:32.405Z,13.80
2023-03-29T22:03:59.262Z,13.80
2023-03-29T22:06:26.462Z,13.80
2023-03-29T22:08:53.408Z,13.80
2023-03-29T22:11:20.412Z,13.80
2023-03-29T22:13:47.341Z,13.70
2023-03-29T22:16:16.953Z,13.80
2023-03-29T22:18:49.162Z,13.70
2023-03-29T22:21:25.110Z,13.80
2023-03-29T22:23:54.509Z,13.70
2023-03-29T22:26:24.802Z,13.70
2023-03-29T22:28:51.675Z,13.80
2023-03-29T22:31:20.242Z,13.70
2023-03-29T22:33:47.573Z,13.80
2023-03-29T22:36:26.247Z,13.80
2023-03-29T22:38:54.068Z,13.80
2023-03-29T22:41:24.935Z,13.80
2023-03-29T22:43:53.380Z,13.80
2023-03-29T22:46:21.254Z,13.80
2023-03-29T22:48:48.381Z,13.80
2023-03-29T22:51:16.228Z,13.80
2023-03-29T22:53:43.596Z,13.80
2023-03-29T22:56:10.474Z,13.80
2023-03-29T22:58:37.941Z,13.80
2023-03-29T23:01:06.043Z,13.80
2023-03-29T23:03:33.602Z,13.90
2023-03-29T23:06:04.343Z,13.80
2023-03-29T23:08:32.663Z,13.80
2023-03-29T23:11:00.463Z,13.80
2023-03-29T23:13:29.408Z,13.80
2023-03-29T23:15:59.840Z,13.80
2023-03-29T23:18:29.628Z,13.80
2023-03-29T23:20:57.375Z,13.80
2023-03-29T23:23:26.657Z,13.80
2023-03-29T23:25:54.603Z,13.60
2023-03-29T23:28:24.979Z,13.70
2023-03-29T23:30:57.171Z,13.70
2023-03-29T23:33:25.700Z,13.60
2023-03-29T23:35:53.615Z,13.60
2023-03-29T23:38:20.694Z,13.20
2023-03-29T23:40:55.736Z,13.50
2023-03-29T23:43:22.589Z,13.50
2023-03-29T23:45:56.247Z,13.40
2023-03-29T23:48:23.911Z,13.40
2023-03-29T23:50:50.783Z,13.40
2023-03-29T23:53:19.851Z,13.30
2023-03-29T23:55:48.508Z,13.30
2023-03-29T23:58:16.649Z,13.30
